createdAt,value
2023-03-13T00:01:26.901Z,61.39
2023-03-13T00:03:57.194Z,62.00
2023-03-13T00:06:27.216Z,61.56
2023-03-13T00:08:55.480Z,61.89
2023-03-13T00:11:23.252Z,61.85
2023-03-13T00:13:58.035Z,61.16
2023-03-13T00:16:27.770Z,61.69
2023-03-13T00:18:57.554Z,61.77
2023-03-13T00:21:27.185Z,61.63
2023-03-13T00:23:55.433Z,61.45
2023-03-13T00:26:25.163Z,61.50
2023-03-13T00:28:53.332Z,61.43
2023-03-13T00:31:26.961Z,61.32
2023-03-13T00:33:58.196Z,61.29
2023-03-13T00:36:31.752Z,61.12
2023-03-13T00:39:00.391Z,61.28
2023-03-13T00:41:30.407Z,61.05
2023-03-13T00:43:58.308Z,61.21
2023-03-13T00:46:28.337Z,61.18
2023-03-13T00:48:57.066Z,61.12
2023-03-13T00:51:27.253Z,60.78
2023-03-13T00:53:57.291Z,60.47
2023-03-13T00:56:25.139Z,60.94
2023-03-13T00:58:53.378Z,60.63
2023-03-13T01:01:28.224Z,60.92
2023-03-13T01:03:58.640Z,60.47
2023-03-13T01:06:28.923Z,60.20
2023-03-13T01:08:59.859Z,60.66
2023-03-13T01:11:30.970Z,60.32
2023-03-13T01:14:04.066Z,60.51
2023-03-13T01:16:34.262Z,60.75
2023-03-13T01:19:08.235Z,60.66
2023-03-13T01:21:36.337Z,60.90
2023-03-13T01:24:04.408Z,61.15
2023-03-13T01:26:32.690Z,61.64
2023-03-13T01:29:00.431Z,61.80
2023-03-13T01:31:31.810Z,61.91
2023-03-13T01:34:02.703Z,62.23
2023-03-13T01:36:30.923Z,62.41
2023-03-13T01:39:00.924Z,62.66
2023-03-13T01:41:30.803Z,62.66
2023-03-13T01:43:59.245Z,63.28
2023-03-13T01:46:33.190Z,63.01
2023-03-13T01:49:21.372Z,63.45
2023-03-13T01:52:11.400Z,62.92
2023-03-13T01:54:54.424Z,62.70
2023-03-13T01:57:41.132Z,63.24
2023-03-13T02:00:12.129Z,63.48
2023-03-13T02:02:47.101Z,63.19
2023-03-13T02:05:17.133Z,63.77
2023-03-13T02:07:59.484Z,64.21
2023-03-13T02:10:31.525Z,63.97
2023-03-13T02:13:02.218Z,63.76
2023-03-13T02:15:31.628Z,64.08
2023-03-13T02:18:00.277Z,64.43
2023-03-13T02:20:28.033Z,64.38
2023-03-13T02:23:10.856Z,64.65
2023-03-13T02:25:53.410Z,64.63
2023-03-13T02:28:35.147Z,64.82
2023-03-13T02:31:07.017Z,64.55
2023-03-13T02:33:44.769Z,64.89
2023-03-13T02:36:17.315Z,64.44
2023-03-13T02:38:59.756Z,64.71
2023-03-13T02:41:29.136Z,65.00
2023-03-13T02:43:58.924Z,64.84
2023-03-13T02:46:26.827Z,64.25
2023-03-13T02:48:57.222Z,64.77
2023-03-13T02:51:41.627Z,64.77
2023-03-13T02:54:14.470Z,64.92
2023-03-13T02:56:45.668Z,64.70
2023-03-13T02:59:13.276Z,64.72
2023-03-13T03:01:43.683Z,64.40
2023-03-13T03:04:11.656Z,64.43
2023-03-13T03:06:39.443Z,64.52
2023-03-13T03:09:07.017Z,64.52
2023-03-13T03:11:36.925Z,64.40
2023-03-13T03:14:08.879Z,64.93
2023-03-13T03:16:40.843Z,64.53
2023-03-13T03:19:11.156Z,64.61
2023-03-13T03:21:38.827Z,64.44
2023-03-13T03:24:06.925Z,64.45
2023-03-13T03:26:34.773Z,64.82
2023-03-13T03:29:05.674Z,64.26
2023-03-13T03:31:33.375Z,64.14
2023-03-13T03:34:00.952Z,64.33
2023-03-13T03:36:29.341Z,64.31
2023-03-13T03:38:57.046Z,64.50
2023-03-13T03:41:27.226Z,64.18
2023-03-13T03:43:57.961Z,64.21
2023-03-13T03:46:31.686Z,64.06
2023-03-13T03:48:59.359Z,64.35
2023-03-13T03:51:26.809Z,64.12
2023-03-13T03:53:54.835Z,63.83
2023-03-13T03:56:22.583Z,64.19
2023-03-13T03:58:54.752Z,63.76
2023-03-13T04:01:28.459Z,63.63
2023-03-13T04:03:56.095Z,63.88
2023-03-13T04:06:24.075Z,63.54
2023-03-13T04:08:51.634Z,63.35
2023-03-13T04:11:24.612Z,63.53
2023-03-13T04:13:55.118Z,63.60
2023-03-13T04:16:23.554Z,63.73
2023-03-13T04:18:52.063Z,63.32
2023-03-13T04:21:20.064Z,63.48
2023-03-13T04:23:55.172Z,63.66
2023-03-13T04:26:23.411Z,63.71
2023-03-13T04:28:53.319Z,63.33
2023-03-13T04:31:33.543Z,63.20
2023-03-13T04:34:19.594Z,63.16
2023-03-13T04:36:55.684Z,63.38
2023-03-13T04:39:41.853Z,63.48
2023-03-13T04:42:20.069Z,63.13
2023-03-13T04:44:59.987Z,62.67
2023-03-13T04:47:53.749Z,62.61
2023-03-13T04:50:31.305Z,62.67
2023-03-13T04:53:13.419Z,62.24
2023-03-13T04:55:50.412Z,61.70
2023-03-13T04:58:38.459Z,61.25
2023-03-13T05:01:19.706Z,60.79
2023-03-13T05:04:11.179Z,60.25
2023-03-13T05:06:44.860Z,59.39
2023-03-13T05:09:38.783Z,58.87
2023-03-13T05:12:25.803Z,58.45
2023-03-13T05:15:00.914Z,57.90
2023-03-13T05:17:54.975Z,57.66
2023-03-13T05:20:45.696Z,57.62
2023-03-13T05:23:32.175Z,56.50
2023-03-13T05:26:09.754Z,56.32
2023-03-13T05:29:09.941Z,55.53
2023-03-13T05:31:56.370Z,55.26
2023-03-13T05:34:43.735Z,54.03
2023-03-13T05:37:34.917Z,54.50
2023-03-13T05:40:34.628Z,53.92
2023-03-13T05:43:25.338Z,53.24
2023-03-13T05:46:19.789Z,53.03
2023-03-13T05:48:55.331Z,52.97
2023-03-13T05:51:41.427Z,52.38
2023-03-13T05:54:27.530Z,52.07
2023-03-13T05:57:18.048Z,51.64
2023-03-13T06:00:25.578Z,50.73
2023-03-13T06:03:22.027Z,49.90
2023-03-13T06:05:58.325Z,47.66
2023-03-13T06:08:39.823Z,48.39
2023-03-13T06:11:07.498Z,47.96
2023-03-13T06:13:35.029Z,47.82
2023-03-13T06:16:11.205Z,46.86
2023-03-13T06:18:44.390Z,46.56
2023-03-13T06:21:11.942Z,45.98
2023-03-13T06:23:39.566Z,44.98
2023-03-13T06:26:07.248Z,44.60
2023-03-13T06:28:34.838Z,43.52
2023-03-13T06:31:04.923Z,42.78
2023-03-13T06:33:33.722Z,42.13
2023-03-13T06:36:02.802Z,41.73
2023-03-13T06:38:30.663Z,40.74
2023-03-13T06:40:59.540Z,40.17
2023-03-13T06:43:27.694Z,39.85
2023-03-13T06:45:55.348Z,38.88
2023-03-13T06:48:24.345Z,38.77
2023-03-13T06:50:52.040Z,38.48
2023-03-13T06:53:20.846Z,38.05
2023-03-13T06:55:50.235Z,38.13
2023-03-13T06:58:31.754Z,38.38
2023-03-13T07:01:07.081Z,37.08
2023-03-13T07:03:35.606Z,37.04
2023-03-13T07:06:04.677Z,36.64
2023-03-13T07:08:32.992Z,36.51
2023-03-13T07:11:06.630Z,33.61
2023-03-13T07:13:34.463Z,34.73
2023-03-13T07:16:08.251Z,33.83
2023-03-13T07:18:38.455Z,33.42
2023-03-13T07:21:15.442Z,33.64
2023-03-13T07:23:42.873Z,33.78
2023-03-13T07:26:15.895Z,31.55
2023-03-13T07:28:44.021Z,33.04
2023-03-13T07:31:19.613Z,32.14
2023-03-13T07:33:48.036Z,33.12
2023-03-13T07:36:16.509Z,33.69
2023-03-13T07:38:48.046Z,33.36
2023-03-13T07:41:16.215Z,34.75
2023-03-13T07:43:43.751Z,36.13
2023-03-13T07:46:14.471Z,36.81
2023-03-13T07:48:43.355Z,36.65
2023-03-13T07:51:30.328Z,37.20
2023-03-13T07:54:04.586Z,38.08
2023-03-13T07:56:32.033Z,38.38
2023-03-13T07:58:59.518Z,38.82
2023-03-13T08:01:30.535Z,38.96
2023-03-13T08:04:01.368Z,38.92
2023-03-13T08:06:33.769Z,38.90
2023-03-13T08:09:02.586Z,39.51
2023-03-13T08:11:30.479Z,40.04
2023-03-13T08:13:58.555Z,39.36
2023-03-13T08:16:28.742Z,40.05
2023-03-13T08:18:58.955Z,39.89
2023-03-13T08:21:29.471Z,39.31
2023-03-13T08:24:03.509Z,38.79
2023-03-13T08:26:32.068Z,38.41
2023-03-13T08:29:08.475Z,38.65
2023-03-13T08:31:49.013Z,38.49
2023-03-13T08:34:17.674Z,39.04
2023-03-13T08:36:45.623Z,38.75
2023-03-13T08:39:18.540Z,38.92
2023-03-13T08:41:46.852Z,38.58
2023-03-13T08:44:17.080Z,37.85
2023-03-13T08:46:45.026Z,36.84
2023-03-13T08:49:13.484Z,36.26
2023-03-13T08:51:41.264Z,34.56
2023-03-13T08:54:08.934Z,32.55
2023-03-13T08:56:36.960Z,31.55
2023-03-13T08:59:05.709Z,29.94
2023-03-13T09:01:35.215Z,30.25
2023-03-13T09:04:08.557Z,30.96
2023-03-13T09:06:38.722Z,32.13
2023-03-13T09:09:08.112Z,33.07
2023-03-13T09:11:37.264Z,34.79
2023-03-13T09:14:08.280Z,35.44
2023-03-13T09:16:36.181Z,35.76
2023-03-13T09:19:04.475Z,35.51
2023-03-13T09:21:35.388Z,36.77
2023-03-13T09:24:03.493Z,38.00
2023-03-13T09:26:31.729Z,38.34
2023-03-13T09:28:59.624Z,39.12
2023-03-13T09:31:30.650Z,40.09
2023-03-13T09:33:58.778Z,40.68
2023-03-13T09:36:27.210Z,41.32
2023-03-13T09:38:56.606Z,41.52
2023-03-13T09:41:34.735Z,42.45
2023-03-13T09:44:14.465Z,40.88
2023-03-13T09:46:54.190Z,39.10
2023-03-13T09:49:32.587Z,39.54
2023-03-13T09:52:07.797Z,41.14
2023-03-13T09:54:39.849Z,41.22
2023-03-13T09:57:32.837Z,42.20
2023-03-13T10:00:12.545Z,40.64
2023-03-13T10:02:44.830Z,41.13
2023-03-13T10:05:22.638Z,39.49
2023-03-13T10:07:50.907Z,40.31
2023-03-13T10:10:27.689Z,41.29
2023-03-13T10:13:17.900Z,43.30
2023-03-13T10:15:52.536Z,44.08
2023-03-13T10:18:22.719Z,44.61
2023-03-13T10:21:00.022Z,45.49
2023-03-13T10:23:46.985Z,46.96
2023-03-13T10:26:22.561Z,47.11
2023-03-13T10:28:52.142Z,47.45
2023-03-13T10:31:33.170Z,48.30
2023-03-13T10:34:12.626Z,48.83
2023-03-13T10:36:43.181Z,47.31
2023-03-13T10:39:30.004Z,44.41
2023-03-13T10:42:19.344Z,38.69
2023-03-13T10:44:46.983Z,37.12
2023-03-13T10:47:15.596Z,35.12
2023-03-13T10:49:56.854Z,32.19
2023-03-13T10:52:32.591Z,30.75
2023-03-13T10:55:07.719Z,33.75
2023-03-13T10:57:36.943Z,36.67
2023-03-13T11:01:16.487Z,38.83
2023-03-13T11:13:11.193Z,44.98
2023-03-13T11:16:00.524Z,46.21
2023-03-13T11:18:41.498Z,46.40
2023-03-13T11:22:14.861Z,46.74
2023-03-13T11:25:41.202Z,47.28
2023-03-13T11:32:47.855Z,49.59
2023-03-13T11:35:36.387Z,49.84
2023-03-13T11:38:13.237Z,49.98
2023-03-13T11:40:59.700Z,50.21
2023-03-13T11:43:45.514Z,50.45
2023-03-13T11:46:26.146Z,50.51
2023-03-13T11:49:05.757Z,50.45
2023-03-13T11:51:59.900Z,50.34
2023-03-13T11:54:54.595Z,50.67
2023-03-13T11:57:30.874Z,49.97
2023-03-13T12:00:33.892Z,51.65
2023-03-13T12:03:30.772Z,46.38
2023-03-13T12:06:00.446Z,41.90
2023-03-13T12:08:34.655Z,41.86
2023-03-13T12:11:48.301Z,41.14
2023-03-13T12:14:47.453Z,39.59
2023-03-13T12:17:41.169Z,41.05
2023-03-13T12:20:13.654Z,39.76
2023-03-13T12:23:03.007Z,38.81
2023-03-13T12:25:39.997Z,39.71
2023-03-13T12:28:32.107Z,40.62
2023-03-13T12:31:06.109Z,36.90
2023-03-13T12:33:44.501Z,35.96
2023-03-13T12:36:20.651Z,36.87
2023-03-13T12:38:55.836Z,35.59
2023-03-13T12:41:28.460Z,34.07
2023-03-13T12:44:11.490Z,32.11
2023-03-13T12:46:47.400Z,30.96
2023-03-13T12:49:20.963Z,34.10
2023-03-13T12:52:35.101Z,33.91
2023-03-13T12:55:18.311Z,37.20
2023-03-13T12:58:10.762Z,39.16
2023-03-13T13:00:41.075Z,40.78
2023-03-13T13:03:17.472Z,42.02
2023-03-13T13:06:13.592Z,42.91
2023-03-13T13:09:03.183Z,43.31
2023-03-13T13:11:33.776Z,44.44
2023-03-13T13:14:03.226Z,44.85
2023-03-13T13:16:33.644Z,45.82
2023-03-13T13:19:43.477Z,46.93
2023-03-13T13:22:38.720Z,46.77
2023-03-13T13:25:18.611Z,47.02
2023-03-13T13:27:47.542Z,46.34
2023-03-13T13:30:18.604Z,46.87
2023-03-13T13:33:10.372Z,46.52
2023-03-13T13:35:38.136Z,46.44
2023-03-13T13:38:20.419Z,47.06
2023-03-13T13:41:06.406Z,46.77
2023-03-13T13:43:39.913Z,46.48
2023-03-13T13:46:31.563Z,46.54
2023-03-13T13:49:08.535Z,46.63
2023-03-13T13:51:40.701Z,46.79
2023-03-13T13:54:29.940Z,47.38
2023-03-13T13:57:08.043Z,46.94
2023-03-13T14:00:05.598Z,46.31
2023-03-13T14:02:46.329Z,45.81
2023-03-13T14:05:21.086Z,46.05
2023-03-13T14:08:03.916Z,47.11
2023-03-13T14:10:37.099Z,46.26
2023-03-13T14:13:15.050Z,46.40
2023-03-13T14:15:53.513Z,46.51
2023-03-13T14:18:27.738Z,46.62
2023-03-13T14:20:55.236Z,46.38
2023-03-13T14:23:52.534Z,47.50
2023-03-13T14:26:19.970Z,46.92
2023-03-13T14:29:08.331Z,47.47
2023-03-13T14:31:38.933Z,47.12
2023-03-13T14:34:09.685Z,46.95
2023-03-13T14:36:51.068Z,48.46
2023-03-13T14:39:37.239Z,47.87
2023-03-13T14:42:16.037Z,47.33
2023-03-13T14:44:47.419Z,46.97
2023-03-13T14:47:30.771Z,47.74
2023-03-13T14:50:01.359Z,47.41
2023-03-13T14:52:32.656Z,47.33
2023-03-13T14:55:26.161Z,48.33
2023-03-13T14:58:16.578Z,48.02
2023-03-13T15:00:45.735Z,47.69
2023-03-13T15:03:16.994Z,48.03
2023-03-13T15:06:07.375Z,47.91
2023-03-13T15:08:38.262Z,47.90
2023-03-13T15:12:03.932Z,48.36
2023-03-13T15:14:34.300Z,48.13
2023-03-13T15:17:04.290Z,48.29
2023-03-13T15:19:32.480Z,48.61
2023-03-13T15:22:00.120Z,48.73
2023-03-13T15:24:27.895Z,49.13
2023-03-13T15:26:55.384Z,49.79
2023-03-13T15:29:23.032Z,50.02
2023-03-13T15:31:51.006Z,50.08
2023-03-13T15:34:20.086Z,50.68
2023-03-13T15:36:47.982Z,50.19
2023-03-13T15:39:19.466Z,50.68
2023-03-13T15:41:47.498Z,50.50
2023-03-13T15:44:15.254Z,50.40
2023-03-13T15:46:43.237Z,50.74
2023-03-13T15:49:13.110Z,51.03
2023-03-13T15:51:40.668Z,51.17
2023-03-13T15:54:08.629Z,51.43
2023-03-13T15:56:38.011Z,51.62
2023-03-13T15:59:13.729Z,51.60
2023-03-13T16:01:42.414Z,51.69
2023-03-13T16:04:10.879Z,51.77
2023-03-13T16:06:38.886Z,52.15
2023-03-13T16:09:07.959Z,51.81
2023-03-13T16:11:35.574Z,51.93
2023-03-13T16:14:06.516Z,52.01
2023-03-13T16:16:37.587Z,52.54
2023-03-13T16:19:07.568Z,52.60
2023-03-13T16:21:38.708Z,52.65
2023-03-13T16:24:06.717Z,52.97
2023-03-13T16:26:34.347Z,53.02
2023-03-13T16:29:02.398Z,52.97
2023-03-13T16:31:32.561Z,53.36
2023-03-13T16:34:01.266Z,53.66
2023-03-13T16:36:31.916Z,53.73
2023-03-13T16:39:02.337Z,53.86
2023-03-13T16:41:32.815Z,53.95
2023-03-13T16:44:00.736Z,54.03
2023-03-13T16:47:02.768Z,54.72
2023-03-13T16:49:32.403Z,54.27
2023-03-13T16:51:59.843Z,54.55
2023-03-13T16:54:28.693Z,54.73
2023-03-13T16:56:56.223Z,54.75
2023-03-13T16:59:24.487Z,55.23
2023-03-13T17:01:52.446Z,55.24
2023-03-13T17:04:20.012Z,55.49
2023-03-13T17:06:48.002Z,55.74
2023-03-13T17:09:17.740Z,55.87
2023-03-13T17:11:46.473Z,56.13
2023-03-13T17:14:16.806Z,55.91
2023-03-13T17:16:45.529Z,56.27
2023-03-13T17:19:14.860Z,56.16
2023-03-13T17:21:42.504Z,56.12
2023-03-13T17:24:15.183Z,56.08
2023-03-13T17:26:42.837Z,56.33
2023-03-13T17:29:19.080Z,56.70
2023-03-13T17:31:46.855Z,56.12
2023-03-13T17:34:15.447Z,55.85
2023-03-13T17:36:43.646Z,56.51
2023-03-13T17:39:13.926Z,56.44
2023-03-13T17:41:41.940Z,56.39
2023-03-13T17:44:09.580Z,56.35
2023-03-13T17:46:41.633Z,56.88
2023-03-13T17:49:13.220Z,56.67
2023-03-13T17:51:41.707Z,56.47
2023-03-13T17:54:10.098Z,56.28
2023-03-13T17:56:40.413Z,56.08
2023-03-13T17:59:15.705Z,56.40
2023-03-13T18:01:46.929Z,55.93
2023-03-13T18:04:14.641Z,56.17
2023-03-13T18:06:45.527Z,56.56
2023-03-13T18:09:18.978Z,56.68
2023-03-13T18:11:47.756Z,56.38
2023-03-13T18:14:15.504Z,56.46
2023-03-13T18:16:48.634Z,56.43
2023-03-13T18:19:25.066Z,57.00
2023-03-13T18:21:54.564Z,57.02
2023-03-13T18:24:22.484Z,56.81
2023-03-13T18:26:50.691Z,56.85
2023-03-13T18:29:27.136Z,57.14
2023-03-13T18:31:56.676Z,56.84
2023-03-13T18:34:25.790Z,56.73
2023-03-13T18:36:54.923Z,56.26
2023-03-13T18:39:22.519Z,56.36
2023-03-13T18:41:52.445Z,56.62
2023-03-13T18:44:21.079Z,56.76
2023-03-13T18:46:50.147Z,56.79
2023-03-13T18:49:22.145Z,56.62
2023-03-13T18:51:52.074Z,56.97
2023-03-13T18:54:20.306Z,56.69
2023-03-13T18:56:48.034Z,56.97
2023-03-13T18:59:21.608Z,56.76
2023-03-13T19:01:49.860Z,56.90
2023-03-13T19:04:18.606Z,56.74
2023-03-13T19:06:47.046Z,56.82
2023-03-13T19:09:42.375Z,56.82
2023-03-13T19:12:10.386Z,56.52
2023-03-13T19:14:38.030Z,56.54
2023-03-13T19:17:24.407Z,56.95
2023-03-13T19:19:57.175Z,56.69
2023-03-13T19:22:26.785Z,56.55
2023-03-13T19:24:54.460Z,56.59
2023-03-13T19:27:22.091Z,56.63
2023-03-13T19:29:50.157Z,56.42
2023-03-13T19:32:18.868Z,56.62
2023-03-13T19:34:46.431Z,56.52
2023-03-13T19:37:15.920Z,56.51
2023-03-13T19:39:43.643Z,56.38
2023-03-13T19:42:11.228Z,56.11
2023-03-13T19:44:40.484Z,56.34
2023-03-13T19:47:14.863Z,56.05
2023-03-13T19:49:42.720Z,56.00
2023-03-13T19:52:10.408Z,56.06
2023-03-13T19:54:37.940Z,55.97
2023-03-13T19:57:05.890Z,56.11
2023-03-13T19:59:35.449Z,56.14
2023-03-13T20:02:06.372Z,56.59
2023-03-13T20:04:34.654Z,56.00
2023-03-13T20:07:02.502Z,55.86
2023-03-13T20:09:30.144Z,55.69
2023-03-13T20:11:57.986Z,55.89
2023-03-13T20:14:25.508Z,56.21
2023-03-13T20:16:53.014Z,56.28
2023-03-13T20:19:21.568Z,55.90
2023-03-13T20:21:49.197Z,56.14
2023-03-13T20:24:18.022Z,56.17
2023-03-13T20:26:45.691Z,56.31
2023-03-13T20:29:13.190Z,55.97
2023-03-13T20:31:40.756Z,56.36
2023-03-13T20:34:08.348Z,55.56
2023-03-13T20:36:35.904Z,55.82
2023-03-13T20:39:04.175Z,55.74
2023-03-13T20:41:34.124Z,56.20
2023-03-13T20:44:01.682Z,56.20
2023-03-13T20:46:29.265Z,56.11
2023-03-13T20:48:58.854Z,55.79
2023-03-13T20:51:27.865Z,56.16
2023-03-13T20:53:55.389Z,55.95
2023-03-13T20:56:22.899Z,56.12
2023-03-13T20:58:50.590Z,56.09
2023-03-13T21:01:19.593Z,55.77
2023-03-13T21:03:47.391Z,55.87
2023-03-13T21:06:17.173Z,55.66
2023-03-13T21:08:46.176Z,55.79
2023-03-13T21:11:18.898Z,55.75
2023-03-13T21:13:47.476Z,55.63
2023-03-13T21:16:15.861Z,55.90
2023-03-13T21:18:46.936Z,55.83
2023-03-13T21:21:17.510Z,55.51
2023-03-13T21:23:46.364Z,55.32
2023-03-13T21:26:14.971Z,55.33
2023-03-13T21:28:42.721Z,55.60
2023-03-13T21:31:12.923Z,55.23
2023-03-13T21:33:41.553Z,55.36
2023-03-13T21:36:11.212Z,55.45
2023-03-13T21:38:39.821Z,55.45
2023-03-13T21:41:13.138Z,55.42
2023-03-13T21:43:41.759Z,55.22
2023-03-13T21:46:15.141Z,55.68
2023-03-13T21:51:13.831Z,55.62
2023-03-13T21:53:42.287Z,55.62
2023-03-13T21:56:15.259Z,55.88
2023-03-13T21:58:45.405Z,55.83
2023-03-13T22:01:14.411Z,55.80
2023-03-13T22:03:42.332Z,55.93
2023-03-13T22:06:22.648Z,55.83
2023-03-13T22:08:50.828Z,55.84
2023-03-13T22:11:19.538Z,55.86
2023-03-13T22:13:46.980Z,55.49
2023-03-13T22:16:14.416Z,56.12
2023-03-13T22:18:43.241Z,56.40
2023-03-13T22:21:10.715Z,56.20
2023-03-13T22:23:38.549Z,56.37
2023-03-13T22:26:06.365Z,56.51
2023-03-13T22:28:33.925Z,56.67
2023-03-13T22:31:02.224Z,56.84
2023-03-13T22:33:29.925Z,57.07
2023-03-13T22:35:57.882Z,57.01
2023-03-13T22:38:25.443Z,56.63
2023-03-13T22:41:04.250Z,57.40
2023-03-13T22:43:32.266Z,57.07
2023-03-13T22:46:00.240Z,57.36
2023-03-13T22:48:28.012Z,57.15
2023-03-13T22:51:07.349Z,57.66
2023-03-13T22:53:37.423Z,57.42
2023-03-13T22:56:06.044Z,57.71
2023-03-13T22:58:34.317Z,57.32
2023-03-13T23:01:05.283Z,57.41
2023-03-13T23:03:33.031Z,57.98
2023-03-13T23:06:00.598Z,58.07
2023-03-13T23:08:28.156Z,58.05
2023-03-13T23:10:55.663Z,58.34
2023-03-13T23:13:23.144Z,58.55
2023-03-13T23:15:57.638Z,58.41
2023-03-13T23:18:26.504Z,58.14
2023-03-13T23:20:54.861Z,58.21
2023-03-13T23:23:22.735Z,58.07
2023-03-13T23:25:50.674Z,58.23
2023-03-13T23:28:18.244Z,57.97
2023-03-13T23:30:45.650Z,57.92
2023-03-13T23:33:13.221Z,58.00
2023-03-13T23:35:40.882Z,57.88
2023-03-13T23:38:10.710Z,57.81
2023-03-13T23:40:38.595Z,57.85
2023-03-13T23:43:06.017Z,57.55
2023-03-13T23:45:35.733Z,57.59
2023-03-13T23:48:03.318Z,57.10
2023-03-13T23:50:30.837Z,57.20
2023-03-13T23:52:58.284Z,56.97
2023-03-13T23:55:28.635Z,57.10
2023-03-13T23:57:56.169Z,57.19
